sensor_id;sensor_type;location;lat;lon;timestamp;pressure;altitude;pressure_sealevel;temperature;humidity
12073;BME280;6098;49.004;8.372;2023-07-13T00:03:17;100328.99;;;22.15;57.42
12073;BME280;6098;49.004;8.372;2023-07-13T00:18:09;100331.28;;;21.95;56.99
12073;BME280;6098;49.004;8.372;2023-07-13T00:33:03;100333.22;;;21.72;57.72
12073;BME280;6098;49.004;8.372;2023-07-13T00:47:55;100331.31;;;21.53;58.11
12073;BME280;6098;49.004;8.372;2023-07-13T01:02:47;100331.15;;;21.33;58.63
12073;BME280;6098;49.004;8.372;2023-07-13T01:17:39;100330.03;;;21.20;58.50
12073;BME280;6098;49.004;8.372;2023-07-13T01:32:30;100330.97;;;21.14;57.17
12073;BME280;6098;49.004;8.372;2023-07-13T01:47:22;100333.34;;;21.18;57.03
12073;BME280;6098;49.004;8.372;2023-07-13T02:02:14;100334.14;;;21.14;57.39
12073;BME280;6098;49.004;8.372;2023-07-13T02:17:07;100329.55;;;21.10;58.54
12073;BME280;6098;49.004;8.372;2023-07-13T02:31:59;100331.34;;;20.93;59.44
12073;BME280;6098;49.004;8.372;2023-07-13T02:46:52;100336.47;;;20.75;60.79
12073;BME280;6098;49.004;8.372;2023-07-13T03:01:43;100341.27;;;20.55;61.50
12073;BME280;6098;49.004;8.372;2023-07-13T03:16:36;100348.53;;;20.54;60.50
12073;BME280;6098;49.004;8.372;2023-07-13T03:31:29;100344.39;;;20.61;60.26
12073;BME280;6098;49.004;8.372;2023-07-13T03:46:22;100371.12;;;20.52;62.97
12073;BME280;6098;49.004;8.372;2023-07-13T04:01:12;100376.94;;;20.13;63.87
12073;BME280;6098;49.004;8.372;2023-07-13T04:16:03;100389.14;;;19.94;65.34
12073;BME280;6098;49.004;8.372;2023-07-13T04:30:55;100403.25;;;19.97;65.47
12073;BME280;6098;49.004;8.372;2023-07-13T04:45:48;100408.86;;;20.06;64.59
12073;BME280;6098;49.004;8.372;2023-07-13T05:00:40;100417.22;;;20.20;64.77
12073;BME280;6098;49.004;8.372;2023-07-13T05:15:32;100418.26;;;20.18;65.00
12073;BME280;6098;49.004;8.372;2023-07-13T05:30:24;100419.78;;;20.16;64.40
12073;BME280;6098;49.004;8.372;2023-07-13T05:45:17;100443.86;;;20.29;63.63
12073;BME280;6098;49.004;8.372;2023-07-13T06:00:10;100468.45;;;20.47;62.33
12073;BME280;6098;49.004;8.372;2023-07-13T06:15:04;100475.78;;;20.68;61.88
12073;BME280;6098;49.004;8.372;2023-07-13T06:29:58;100496.73;;;20.87;61.61
12073;BME280;6098;49.004;8.372;2023-07-13T06:44:52;100515.62;;;21.25;62.17
12073;BME280;6098;49.004;8.372;2023-07-13T06:59:45;100509.53;;;21.50;60.43
12073;BME280;6098;49.004;8.372;2023-07-13T07:14:37;100524.63;;;21.80;57.58
12073;BME280;6098;49.004;8.372;2023-07-13T07:29:35;100531.34;;;22.12;55.64
12073;BME280;6098;49.004;8.372;2023-07-13T07:44:27;100539.77;;;22.35;51.85
12073;BME280;6098;49.004;8.372;2023-07-13T07:59:20;100539.56;;;22.68;52.98
12073;BME280;6098;49.004;8.372;2023-07-13T08:14:15;100541.19;;;22.91;49.46
12073;BME280;6098;49.004;8.372;2023-07-13T08:29:08;100543.38;;;23.12;45.64
12073;BME280;6098;49.004;8.372;2023-07-13T08:44:00;100541.34;;;23.19;43.21
12073;BME280;6098;49.004;8.372;2023-07-13T08:58:55;100532.81;;;23.54;43.27
12073;BME280;6098;49.004;8.372;2023-07-13T09:29:11;100535.11;;;23.98;40.74
12073;BME280;6098;49.004;8.372;2023-07-13T09:44:11;100538.89;;;24.16;39.89
12073;BME280;6098;49.004;8.372;2023-07-13T09:59:17;100529.88;;;24.49;40.16
12073;BME280;6098;49.004;8.372;2023-07-13T10:14:07;100532.02;;;24.83;40.06
12073;BME280;6098;49.004;8.372;2023-07-13T10:29:00;100522.07;;;24.93;41.51
12073;BME280;6098;49.004;8.372;2023-07-13T10:43:51;100523.55;;;25.14;39.40
12073;BME280;6098;49.004;8.372;2023-07-13T10:58:43;100519.45;;;25.47;39.50
12073;BME280;6098;49.004;8.372;2023-07-13T11:28:41;100492.05;;;26.03;38.92
12073;BME280;6098;49.004;8.372;2023-07-13T11:43:34;100500.23;;;26.29;37.01
12073;BME280;6098;49.004;8.372;2023-07-13T11:58:26;100489.77;;;26.03;38.38
12073;BME280;6098;49.004;8.372;2023-07-13T12:13:18;100487.27;;;26.75;35.58
12073;BME280;6098;49.004;8.372;2023-07-13T12:28:23;100482.64;;;27.27;33.62
12073;BME280;6098;49.004;8.372;2023-07-13T12:43:20;100476.09;;;27.95;33.23
12073;BME280;6098;49.004;8.372;2023-07-13T13:13:09;100485.06;;;28.01;31.10
12073;BME280;6098;49.004;8.372;2023-07-13T13:28:02;100480.80;;;28.70;31.47
12073;BME280;6098;49.004;8.372;2023-07-13T13:42:55;100471.78;;;28.34;29.46
12073;BME280;6098;49.004;8.372;2023-07-13T13:57:48;100480.41;;;28.70;29.67
12073;BME280;6098;49.004;8.372;2023-07-13T14:12:47;100488.66;;;28.78;29.78
12073;BME280;6098;49.004;8.372;2023-07-13T14:27:43;100491.89;;;28.73;30.86
12073;BME280;6098;49.004;8.372;2023-07-13T14:42:37;100487.55;;;28.75;30.38
12073;BME280;6098;49.004;8.372;2023-07-13T14:57:33;100489.72;;;29.00;30.55
12073;BME280;6098;49.004;8.372;2023-07-13T15:12:24;100474.42;;;29.76;31.42
12073;BME280;6098;49.004;8.372;2023-07-13T15:27:19;100474.19;;;29.86;29.62
12073;BME280;6098;49.004;8.372;2023-07-13T15:42:19;100464.89;;;30.51;29.82
12073;BME280;6098;49.004;8.372;2023-07-13T15:57:13;100458.44;;;30.30;30.67
12073;BME280;6098;49.004;8.372;2023-07-13T16:12:10;100462.49;;;30.71;28.25
12073;BME280;6098;49.004;8.372;2023-07-13T16:27:06;100459.19;;;30.04;28.26
12073;BME280;6098;49.004;8.372;2023-07-13T16:41:57;100472.72;;;28.70;30.98
12073;BME280;6098;49.004;8.372;2023-07-13T16:56:48;100477.42;;;28.40;32.00
12073;BME280;6098;49.004;8.372;2023-07-13T17:11:40;100469.47;;;28.02;32.19
12073;BME280;6098;49.004;8.372;2023-07-13T17:26:30;100475.86;;;27.81;32.27
12073;BME280;6098;49.004;8.372;2023-07-13T17:41:24;100474.52;;;28.18;32.73
12073;BME280;6098;49.004;8.372;2023-07-13T17:56:20;100475.44;;;28.34;32.08
12073;BME280;6098;49.004;8.372;2023-07-13T18:11:11;100492.41;;;27.58;33.29
12073;BME280;6098;49.004;8.372;2023-07-13T18:26:02;100491.39;;;27.05;33.77
12073;BME280;6098;49.004;8.372;2023-07-13T18:40:55;100489.09;;;26.79;34.21
12073;BME280;6098;49.004;8.372;2023-07-13T18:55:48;100495.76;;;26.55;34.39
12073;BME280;6098;49.004;8.372;2023-07-13T19:10:39;100498.65;;;26.31;34.73
12073;BME280;6098;49.004;8.372;2023-07-13T19:25:31;100506.05;;;26.08;35.41
12073;BME280;6098;49.004;8.372;2023-07-13T19:40:23;100534.61;;;25.81;35.79
12073;BME280;6098;49.004;8.372;2023-07-13T19:55:17;100555.05;;;25.66;36.61
12073;BME280;6098;49.004;8.372;2023-07-13T20:10:28;100569.57;;;25.53;36.37
12073;BME280;6098;49.004;8.372;2023-07-13T20:25:27;100577.32;;;25.43;37.04
12073;BME280;6098;49.004;8.372;2023-07-13T20:40:19;100582.04;;;25.31;37.90
12073;BME280;6098;49.004;8.372;2023-07-13T20:55:12;100577.75;;;25.15;37.90
12073;BME280;6098;49.004;8.372;2023-07-13T21:25:12;100589.95;;;24.73;41.89
12073;BME280;6098;49.004;8.372;2023-07-13T21:40:08;100598.00;;;24.31;45.26
12073;BME280;6098;49.004;8.372;2023-07-13T21:54:59;100597.75;;;23.94;46.25
12073;BME280;6098;49.004;8.372;2023-07-13T22:09:50;100600.98;;;23.54;47.87
12073;BME280;6098;49.004;8.372;2023-07-13T22:24:42;100606.51;;;23.16;49.65
12073;BME280;6098;49.004;8.372;2023-07-13T22:39:35;100604.59;;;22.92;50.61
12073;BME280;6098;49.004;8.372;2023-07-13T22:54:26;100598.29;;;22.66;50.87
12073;BME280;6098;49.004;8.372;2023-07-13T23:09:20;100599.02;;;22.47;51.64
12073;BME280;6098;49.004;8.372;2023-07-13T23:24:12;100581.82;;;22.22;53.36
12073;BME280;6098;49.004;8.372;2023-07-13T23:39:03;100575.08;;;21.95;54.50
12073;BME280;6098;49.004;8.372;2023-07-13T23:53:56;100577.41;;;21.77;55.01
